Time;durP1;ratioP1;P1;durP2;ratioP2;P2;SDS_P1;SDS_P2;PMS_P1;PMS_P2;Temp;Humidity;BMP_temperature;BMP_pressure;BME280_temperature;BME280_humidity;BME280_pressure;Samples;Min_cycle;Max_cycle;Signal;HPM_P1;HPM_P2
2022/05/06 00:00:25;;;;;;;35.47;20.33;;;;;;;10.43;100.00;99273.97;5013441;28;20222;-51
2022/05/06 00:02:51;;;;;;;33.77;20.40;;;;;;;10.41;100.00;99269.81;4996113;28;20633;-50
2022/05/06 00:05:20;;;;;;;34.87;19.90;;;;;;;10.40;100.00;99269.00;5017422;28;20204;-50
2022/05/06 00:07:48;;;;;;;33.77;19.00;;;;;;;10.38;100.00;99270.03;5012279;28;20192;-50
2022/05/06 00:10:16;;;;;;;37.73;20.53;;;;;;;10.39;100.00;99269.97;5013588;28;20191;-50
2022/05/06 00:12:43;;;;;;;30.53;18.93;;;;;;;10.38;100.00;99268.28;5012750;28;20554;-49
2022/05/06 00:15:11;;;;;;;36.90;21.33;;;;;;;10.39;100.00;99272.56;5012606;28;20543;-49
2022/05/06 00:17:38;;;;;;;35.17;21.17;;;;;;;10.41;100.00;99269.81;5011850;28;20200;-49
2022/05/06 00:20:07;;;;;;;34.23;19.13;;;;;;;10.39;100.00;99275.19;5013492;28;20242;-49
2022/05/06 00:22:35;;;;;;;33.80;20.30;;;;;;;10.38;100.00;99276.13;5013384;28;20193;-49
2022/05/06 00:25:02;;;;;;;33.27;20.47;;;;;;;10.37;100.00;99279.69;5012977;28;20665;-49
2022/05/06 00:27:30;;;;;;;36.73;21.10;;;;;;;10.37;100.00;99271.84;5013133;28;20238;-49
2022/05/06 00:30:15;;;;;;;36.73;21.27;;;;;;;10.38;100.00;99267.44;5013849;28;20699;-49
2022/05/06 00:32:42;;;;;;;31.23;20.93;;;;;;;10.39;100.00;99271.69;5012967;28;20187;-49
2022/05/06 00:35:10;;;;;;;37.43;21.23;;;;;;;10.38;100.00;99260.44;5012860;28;20206;-49
2022/05/06 00:37:39;;;;;;;37.27;21.13;;;;;;;10.36;100.00;99272.81;5012526;28;20187;-49
2022/05/06 00:40:07;;;;;;;35.03;20.80;;;;;;;10.33;100.00;99266.06;5011666;28;20266;-49
2022/05/06 00:42:35;;;;;;;34.37;20.73;;;;;;;10.36;100.00;99272.81;5003874;28;20849;-49
2022/05/06 00:45:05;;;;;;;33.27;19.03;;;;;;;10.38;100.00;99268.28;5018735;28;20212;-48
2022/05/06 00:47:33;;;;;;;32.80;20.90;;;;;;;10.35;100.00;99265.94;5024108;28;20192;-49
2022/05/06 00:50:01;;;;;;;37.40;20.50;;;;;;;10.33;100.00;99262.63;5008418;28;20199;-49
2022/05/06 00:52:29;;;;;;;33.20;20.73;;;;;;;10.36;100.00;99266.75;4987152;28;20200;-48
2022/05/06 00:54:58;;;;;;;33.00;19.63;;;;;;;10.32;100.00;99253.97;5012506;28;20614;-48
2022/05/06 00:57:26;;;;;;;33.67;20.13;;;;;;;10.34;100.00;99259.06;5012709;28;20278;-48
2022/05/06 01:02:38;;;;;;;32.63;19.20;;;;;;;10.36;100.00;99258.91;5005382;28;20204;-48
2022/05/06 01:05:09;;;;;;;32.83;19.87;;;;;;;10.34;100.00;99261.69;4994338;28;20254;-48
2022/05/06 01:07:37;;;;;;;33.40;19.23;;;;;;;10.34;100.00;99253.84;4994685;28;20283;-48
2022/05/06 01:10:07;;;;;;;33.17;19.57;;;;;;;10.31;100.00;99259.34;4994886;28;20215;-49
2022/05/06 01:12:34;;;;;;;36.67;20.37;;;;;;;10.35;100.00;99255.50;4994706;28;20203;-48
2022/05/06 01:15:19;;;;;;;35.57;20.67;;;;;;;10.33;100.00;99253.00;4994603;28;20220;-48
2022/05/06 01:17:48;;;;;;;32.67;20.40;;;;;;;10.32;100.00;99242.72;4994545;28;20208;-48
2022/05/06 01:20:17;;;;;;;37.77;21.40;;;;;;;10.31;100.00;99248.91;5012211;28;20190;-48
2022/05/06 01:22:48;;;;;;;35.70;22.33;;;;;;;10.31;100.00;99249.72;4994519;28;20198;-49
2022/05/06 01:25:17;;;;;;;38.00;22.60;;;;;;;10.28;100.00;99247.38;4994204;28;20235;-48
2022/05/06 01:27:48;;;;;;;33.07;21.47;;;;;;;10.29;100.00;99246.41;4994496;28;20601;-48
2022/05/06 01:30:29;;;;;;;38.30;21.17;;;;;;;10.29;100.00;99246.41;4994336;28;20203;-49
2022/05/06 01:32:58;;;;;;;39.13;22.10;;;;;;;10.31;100.00;99246.28;4994468;28;20204;-48
2022/05/06 01:35:28;;;;;;;34.07;21.97;;;;;;;10.30;100.00;99242.03;4993939;28;20258;-48
2022/05/06 01:38:01;;;;;;;38.60;22.77;;;;;;;10.31;100.00;99248.91;4994232;28;20199;-48
2022/05/06 01:40:34;;;;;;;36.10;20.53;;;;;;;10.29;100.00;99240.38;5002938;28;20227;-48
2022/05/06 01:43:03;;;;;;;37.07;23.00;;;;;;;10.29;100.00;99250.81;5011991;28;20651;-48
2022/05/06 01:45:33;;;;;;;40.70;22.20;;;;;;;10.25;100.00;99244.22;4994138;28;20303;-48
2022/05/06 01:48:04;;;;;;;42.00;24.33;;;;;;;10.27;100.00;99252.72;5012048;28;20244;-49
2022/05/06 01:50:36;;;;;;;39.07;23.77;;;;;;;10.27;100.00;99244.91;5013836;28;20202;-48
2022/05/06 01:53:08;;;;;;;42.47;23.67;;;;;;;10.27;100.00;99247.50;4998322;28;20199;-48
2022/05/06 01:55:37;;;;;;;37.77;22.43;;;;;;;10.27;100.00;99243.09;4998080;28;20218;-48
2022/05/06 01:58:07;;;;;;;38.20;24.10;;;;;;;10.26;100.00;99243.25;4998123;28;20591;-49
2022/05/06 02:00:40;;;;;;;41.17;24.03;;;;;;;10.26;100.00;99245.84;4998158;28;20665;-48
2022/05/06 02:06:01;;;;;;;35.23;22.37;;;;;;;10.29;100.00;99240.38;4998013;28;20214;-51
2022/05/06 02:08:32;;;;;;;45.33;24.80;;;;;;;10.28;100.00;99241.34;4998069;28;20259;-48
2022/05/06 02:11:01;;;;;;;37.20;22.27;;;;;;;10.27;100.00;99237.88;4997923;28;20199;-49
2022/05/06 02:13:28;;;;;;;37.40;23.00;;;;;;;10.28;100.00;99241.34;4997958;28;20199;-50
2022/05/06 02:16:16;;;;;;;35.27;21.03;;;;;;;10.29;100.00;99240.38;4984416;28;20204;-50
2022/05/06 02:19:07;;;;;;;39.97;21.77;;;;;;;10.24;100.00;99237.34;4997826;28;20224;-49
2022/05/06 02:21:52;;;;;;;33.43;20.10;;;;;;;10.23;100.00;99235.69;4997639;28;20706;-51
2022/05/06 02:24:44;;;;;;;35.43;21.57;;;;;;;10.17;100.00;99237.88;5009358;28;20224;-51
2022/05/06 02:27:26;;;;;;;40.63;21.23;;;;;;;10.19;100.00;99242.94;4997922;28;20687;-48
2022/05/06 02:35:30;;;;;;;37.63;23.87;;;;;;;10.19;100.00;99240.34;4997542;28;20720;-51
2022/05/06 02:38:00;;;;;;;43.20;24.67;;;;;;;10.17;100.00;99237.88;4997737;28;20199;-50
2022/05/06 02:40:34;;;;;;;38.60;19.77;;;;;;;10.19;100.00;99238.56;4997565;28;20210;-53
2022/05/06 02:43:02;;;;;;;36.57;22.53;;;;;;;10.18;100.00;99238.69;4998261;28;20204;-50
2022/05/06 02:45:31;;;;;;;36.23;20.93;;;;;;;10.13;100.00;99236.47;4997197;28;20699;-51
2022/05/06 02:47:59;;;;;;;43.67;23.03;;;;;;;10.14;100.00;99238.13;4997593;28;20189;-52
2022/05/06 02:50:27;;;;;;;41.90;22.87;;;;;;;10.17;100.00;99237.88;4997156;28;20193;-50
2022/05/06 02:52:54;;;;;;;41.00;22.50;;;;;;;10.16;100.00;99236.22;4997657;28;20207;-51
2022/05/06 02:55:23;;;;;;;35.80;22.17;;;;;;;10.18;100.00;99236.91;4997126;28;20216;-49
2022/05/06 02:57:56;;;;;;;39.10;22.37;;;;;;;10.18;100.00;99234.31;4998084;28;20578;-50
2022/05/06 03:00:24;;;;;;;37.83;22.77;;;;;;;10.16;100.00;99236.22;4997129;28;20223;-50
2022/05/06 03:02:56;;;;;;;37.60;21.87;;;;;;;10.16;100.00;99236.22;4997809;28;20207;-51
2022/05/06 03:05:30;;;;;;;40.60;22.77;;;;;;;10.17;100.00;99231.81;4997033;28;20249;-49
2022/05/06 03:08:00;;;;;;;39.47;22.77;;;;;;;10.17;100.00;99232.66;4997599;28;20295;-49
2022/05/06 03:10:31;;;;;;;38.97;21.93;;;;;;;10.20;100.00;99231.53;4998123;28;20198;-50
2022/05/06 03:12:59;;;;;;;39.30;22.10;;;;;;;10.14;100.00;99234.69;4998070;28;20199;-51
2022/05/06 03:15:29;;;;;;;35.47;20.43;;;;;;;10.14;100.00;99232.06;4997313;28;20213;-49
2022/05/06 03:18:10;;;;;;;43.73;21.50;;;;;;;10.08;100.00;99225.63;4996810;28;20200;-51
2022/05/06 03:20:38;;;;;;;39.63;21.30;;;;;;;10.08;100.00;99223.00;4997601;28;20299;-48
2022/05/06 03:23:06;;;;;;;34.67;21.70;;;;;;;10.13;100.00;99227.81;4996976;28;20200;-52
2022/05/06 03:25:35;;;;;;;41.60;23.03;;;;;;;10.11;100.00;99227.13;4996619;28;20238;-48
2022/05/06 03:28:07;;;;;;;38.63;22.43;;;;;;;10.09;100.00;99229.03;4997235;28;20204;-50
2022/05/06 03:30:39;;;;;;;36.83;22.07;;;;;;;10.09;100.00;99227.28;5014483;28;20891;-50
2022/05/06 03:33:15;;;;;;;34.80;20.50;;;;;;;10.06;100.00;99218.91;4996831;28;20221;-52
2022/05/06 03:35:42;;;;;;;35.10;19.80;;;;;;;10.04;100.00;99217.25;5013841;28;20287;-50
2022/05/06 03:38:10;;;;;;;36.23;20.10;;;;;;;10.02;100.00;99224.38;5014414;28;20249;-50
2022/05/06 03:40:42;;;;;;;34.03;20.10;;;;;;;9.98;100.00;99215.19;4996810;28;20214;-50
2022/05/06 03:43:11;;;;;;;38.70;22.33;;;;;;;9.98;100.00;99214.34;4996098;28;20213;-49
2022/05/06 03:45:40;;;;;;;32.67;19.60;;;;;;;9.97;100.00;99212.69;4996219;28;20303;-48
2022/05/06 03:48:09;;;;;;;35.03;20.27;;;;;;;10.00;100.00;99215.03;4996396;28;20242;-50
2022/05/06 03:53:28;;;;;;;42.90;19.90;;;;;;;10.01;100.00;99219.28;4996288;28;20248;-51
2022/05/06 03:55:56;;;;;;;30.70;17.97;;;;;;;10.03;100.00;99217.38;4995793;28;20247;-50
2022/05/06 03:58:28;;;;;;;31.63;17.30;;;;;;;10.04;100.00;99219.03;4996060;28;20195;-52
2022/05/06 04:00:55;;;;;;;31.97;18.27;;;;;;;10.01;100.00;99222.72;5013680;28;20234;-50
2022/05/06 04:03:23;;;;;;;34.77;20.00;;;;;;;10.01;100.00;99222.72;4995894;28;20283;-49
2022/05/06 04:05:50;;;;;;;34.57;19.07;;;;;;;10.02;100.00;99223.53;5013273;28;20563;-49
2022/05/06 04:08:18;;;;;;;35.63;20.60;;;;;;;10.01;100.00;99227.94;4996136;28;20227;-50
2022/05/06 04:10:45;;;;;;;34.30;19.97;;;;;;;10.03;100.00;99231.25;4995970;28;20216;-51
2022/05/06 04:13:16;;;;;;;40.40;21.83;;;;;;;10.06;100.00;99231.94;4995158;28;20196;-51
2022/05/06 04:15:45;;;;;;;37.70;20.83;;;;;;;10.10;100.00;99235.91;4995319;28;20605;-52
2022/05/06 04:18:15;;;;;;;37.70;21.23;;;;;;;10.06;100.00;99234.56;4995548;28;20238;-49
2022/05/06 04:23:32;;;;;;;40.77;21.30;;;;;;;10.07;100.00;99242.22;4995526;28;20202;-50
2022/05/06 04:26:06;;;;;;;31.37;19.30;;;;;;;10.08;100.00;99243.88;4995376;28;20203;-50
2022/05/06 04:28:38;;;;;;;38.73;20.47;;;;;;;10.13;100.00;99240.88;4995323;28;20200;-50
2022/05/06 04:31:08;;;;;;;33.63;19.67;;;;;;;10.12;100.00;99244.44;5012868;28;20182;-50
2022/05/06 04:33:41;;;;;;;34.33;19.80;;;;;;;10.16;100.00;99246.66;4995400;28;20202;-53
2022/05/06 04:36:16;;;;;;;32.37;19.00;;;;;;;10.13;100.00;99253.91;4995281;28;20203;-49
2022/05/06 04:38:47;;;;;;;26.03;16.67;;;;;;;10.18;100.00;99251.72;4995470;28;20196;-50
2022/05/06 04:41:15;;;;;;;26.23;16.50;;;;;;;10.18;100.00;99254.34;4995285;28;20225;-49
2022/05/06 04:43:42;;;;;;;26.83;16.37;;;;;;;10.19;100.00;99256.81;4994838;28;20216;-49
2022/05/06 04:46:12;;;;;;;24.03;15.03;;;;;;;10.20;100.00;99247.19;4995523;28;20192;-49
2022/05/06 04:48:38;;;;;;;21.77;14.37;;;;;;;10.22;100.00;99257.53;4995436;28;20283;-50
2022/05/06 04:51:10;;;;;;;26.77;15.60;;;;;;;10.24;100.00;99259.03;4995343;28;20202;-50
2022/05/06 04:53:41;;;;;;;29.23;16.80;;;;;;;10.27;100.00;99252.72;4995140;28;20191;-51
2022/05/06 04:56:08;;;;;;;23.97;16.13;;;;;;;10.28;100.00;99260.41;4989018;28;20610;-48
2022/05/06 04:58:38;;;;;;;28.57;15.50;;;;;;;10.30;100.00;99262.91;4994970;28;20214;-51
2022/05/06 05:01:13;;;;;;;31.03;17.97;;;;;;;10.30;100.00;99268.94;4994858;28;20235;-49
2022/05/06 05:03:40;;;;;;;26.97;16.40;;;;;;;10.31;100.00;99270.59;4994842;28;20546;-49
2022/05/06 05:06:08;;;;;;;27.43;17.50;;;;;;;10.36;100.00;99271.97;4995135;28;20220;-50
2022/05/06 05:08:53;;;;;;;29.80;17.83;;;;;;;10.37;100.00;99274.47;5012885;28;20200;-49
2022/05/06 05:11:20;;;;;;;33.70;18.93;;;;;;;10.38;100.00;99267.44;4995023;28;20282;-50
2022/05/06 05:13:56;;;;;;;29.53;16.73;;;;;;;10.44;100.00;99275.59;4995190;28;20223;-50
2022/05/06 05:16:34;;;;;;;33.97;17.33;;;;;;;10.44;100.00;99274.75;4995395;28;20283;-52
2022/05/06 05:19:03;;;;;;;26.50;15.77;;;;;;;10.45;100.00;99277.25;4994692;28;20200;-50
2022/05/06 05:21:32;;;;;;;27.07;16.93;;;;;;;10.47;100.00;99277.13;4994925;28;20200;-51
2022/05/06 05:24:02;;;;;;;27.90;17.57;;;;;;;10.49;100.00;99272.59;4994888;28;20638;-50
2022/05/06 05:26:29;;;;;;;31.27;16.97;;;;;;;10.53;100.00;99280.97;4995098;28;20193;-50
2022/05/06 05:28:57;;;;;;;31.87;18.30;;;;;;;10.53;100.00;99276.56;4994925;28;20244;-49
2022/05/06 05:31:27;;;;;;;28.77;17.93;;;;;;;10.59;100.00;99277.84;4995033;28;20272;-49
2022/05/06 05:33:56;;;;;;;30.07;19.27;;;;;;;10.66;100.00;99281.53;4994824;28;20714;-49
2022/05/06 05:36:24;;;;;;;37.43;21.07;;;;;;;10.68;100.00;99281.41;4994729;28;20216;-49
2022/05/06 05:38:54;;;;;;;37.30;21.20;;;;;;;10.71;100.00;99276.72;4994942;28;20743;-51
2022/05/06 05:41:21;;;;;;;30.73;20.53;;;;;;;10.77;100.00;99270.97;4994629;28;20624;-50
2022/05/06 05:49:22;;;;;;;32.37;18.60;;;;;;;11.00;100.00;99280.34;4994647;28;20200;-51
2022/05/06 05:51:49;;;;;;;36.43;18.83;;;;;;;11.08;100.00;99273.47;4994850;28;20653;-49
2022/05/06 05:54:16;;;;;;;30.43;20.00;;;;;;;11.14;100.00;99279.91;4994038;28;20252;-49
2022/05/06 05:56:45;;;;;;;30.73;18.63;;;;;;;11.22;100.00;99285.25;4994717;28;20220;-50
2022/05/06 05:59:14;;;;;;;30.42;20.27;;;;;;;11.36;100.00;99277.97;4994090;28;20781;-50
2022/05/06 06:01:42;;;;;;;28.10;19.75;;;;;;;11.46;100.00;99276.16;4994120;28;20432;-50
2022/05/06 06:04:11;;;;;;;29.83;17.63;;;;;;;11.59;100.00;99283.72;4994342;28;20232;-51
2022/05/06 06:06:44;;;;;;;26.33;18.07;;;;;;;11.65;100.00;99284.94;4994722;28;20229;-50
2022/05/06 06:09:14;;;;;;;27.77;16.40;;;;;;;11.74;100.00;99283.25;4994348;28;20197;-49
2022/05/06 06:11:43;;;;;;;24.90;16.80;;;;;;;11.82;100.00;99278.13;4994508;28;20201;-50
2022/05/06 06:14:12;;;;;;;27.63;18.27;;;;;;;11.87;100.00;99283.75;4994022;28;20219;-51
2022/05/06 06:16:40;;;;;;;30.93;19.00;;;;;;;11.90;100.00;99282.66;4994461;28;20200;-50
2022/05/06 06:19:08;;;;;;;28.70;18.43;;;;;;;11.99;100.00;99279.19;4994420;28;20203;-49
2022/05/06 06:21:44;;;;;;;32.83;18.10;;;;;;;12.04;100.00;99282.22;4994531;28;20219;-50
2022/05/06 06:24:18;;;;;;;27.33;18.67;;;;;;;12.10;100.00;99286.06;4993993;28;20221;-49
2022/05/06 06:26:48;;;;;;;26.73;18.77;;;;;;;12.19;100.00;99294.84;4994404;28;20200;-50
2022/05/06 06:29:23;;;;;;;26.57;16.90;;;;;;;12.20;100.00;99281.59;4994405;28;20603;-49
2022/05/06 06:31:53;;;;;;;28.90;18.83;;;;;;;12.20;100.00;99291.22;4994187;28;20193;-49
2022/05/06 06:34:21;;;;;;;37.10;27.03;;;;;;;12.22;100.00;99295.38;4993797;28;20448;-49
2022/05/06 06:36:51;;;;;;;39.40;26.77;;;;;;;12.21;100.00;99290.25;4996086;28;20198;-49
2022/05/06 06:39:18;;;;;;;40.40;29.80;;;;;;;12.15;100.00;99301.34;5015274;28;20181;-49
2022/05/06 06:41:48;;;;;;;48.60;37.17;;;;;;;12.13;100.00;99301.47;4997512;28;20216;-49
2022/05/06 06:44:16;;;;;;;38.47;29.33;;;;;;;12.21;100.00;99296.34;4997040;28;20266;-50
2022/05/06 06:47:09;;;;;;;35.07;28.13;;;;;;;12.26;100.00;99301.13;4997494;28;20194;-49
2022/05/06 06:49:49;;;;;;;38.33;28.03;;;;;;;12.32;100.00;99297.94;4997668;28;20192;-49
2022/05/06 06:52:44;;;;;;;29.97;20.00;;;;;;;12.34;100.00;99303.84;5001392;28;20205;-49
2022/05/06 06:55:12;;;;;;;36.93;20.23;;;;;;;12.35;100.00;99302.88;5014651;28;20268;-49
2022/05/06 06:57:39;;;;;;;29.73;18.00;;;;;;;12.43;100.00;99299.53;5015079;28;20192;-49
2022/05/06 07:00:08;;;;;;;32.67;20.97;;;;;;;12.46;100.00;99303.66;5014916;28;20200;-49
2022/05/06 07:02:36;;;;;;;28.47;20.17;;;;;;;12.50;100.00;99295.38;5014722;28;20193;-49
2022/05/06 07:05:04;;;;;;;27.67;19.03;;;;;;;12.53;100.00;99302.94;5014424;28;20217;-49
2022/05/06 07:13:01;;;;;;;31.97;19.27;;;;;;;12.75;100.00;99303.47;4997055;28;20202;-49
2022/05/06 07:15:31;;;;;;;28.87;16.80;;;;;;;12.85;99.56;99304.22;5014297;28;20202;-49
2022/05/06 07:17:58;;;;;;;23.70;17.43;;;;;;;12.94;99.31;99302.53;5014624;28;20254;-49
2022/05/06 07:20:25;;;;;;;35.83;17.63;;;;;;;13.07;98.65;99307.38;5014447;28;20219;-49
2022/05/06 07:22:52;;;;;;;31.47;17.87;;;;;;;13.12;97.29;99306.94;5014770;28;20189;-49
2022/05/06 07:25:21;;;;;;;25.80;16.83;;;;;;;13.20;98.08;99304.41;5006101;28;20209;-49
2022/05/06 07:27:49;;;;;;;29.97;18.30;;;;;;;13.21;96.12;99302.59;5014194;28;20542;-49
2022/05/06 07:30:16;;;;;;;29.00;18.03;;;;;;;13.28;96.11;99311.50;5013920;28;20255;-49
2022/05/06 07:32:43;;;;;;;26.27;17.40;;;;;;;13.27;94.28;99304.59;4996479;28;20672;-49
2022/05/06 07:35:10;;;;;;;29.10;18.37;;;;;;;13.22;93.66;99310.31;5013874;28;20594;-49
2022/05/06 07:37:37;;;;;;;27.37;19.47;;;;;;;13.24;95.93;99315.38;5013852;28;20563;-49
2022/05/06 07:40:06;;;;;;;31.33;18.40;;;;;;;13.15;94.49;99311.88;5013859;28;20216;-49
2022/05/06 07:42:34;;;;;;;27.10;17.00;;;;;;;13.33;94.26;99314.47;5007290;28;20197;-49
2022/05/06 07:45:01;;;;;;;25.37;16.63;;;;;;;13.36;94.11;99316.81;5018525;28;20215;-49
2022/05/06 07:47:29;;;;;;;32.10;17.17;;;;;;;13.41;93.14;99321.56;5021061;28;20193;-49
2022/05/06 07:49:56;;;;;;;26.17;17.37;;;;;;;13.37;93.57;99310.59;5004068;28;20212;-49
2022/05/06 07:52:24;;;;;;;30.90;17.87;;;;;;;13.40;94.58;99309.44;5021158;28;20197;-51
2022/05/06 07:54:51;;;;;;;28.87;17.27;;;;;;;13.44;93.38;99308.19;5021958;28;20209;-50
2022/05/06 07:57:18;;;;;;;25.03;16.17;;;;;;;13.35;90.86;99304.66;5024602;28;20190;-49
2022/05/06 07:59:46;;;;;;;23.67;17.70;;;;;;;13.60;91.00;99311.91;5004162;28;20883;-49
2022/05/06 08:05:00;;;;;;;22.17;13.83;;;;;;;13.82;85.60;99310.56;5016133;28;20211;-49
2022/05/06 08:07:27;;;;;;;22.07;14.27;;;;;;;13.85;86.90;99316.34;5019753;28;20202;-49
2022/05/06 08:09:54;;;;;;;22.23;13.40;;;;;;;13.88;84.40;99308.16;5021903;28;20205;-50
2022/05/06 08:12:21;;;;;;;21.70;12.93;;;;;;;13.84;83.69;99319.09;5020307;28;20193;-49
2022/05/06 08:14:50;;;;;;;18.63;13.27;;;;;;;13.82;83.46;99323.69;5017989;28;20298;-49
2022/05/06 08:17:17;;;;;;;22.43;13.20;;;;;;;13.78;83.37;99325.81;5019757;28;20207;-49
2022/05/06 08:19:45;;;;;;;20.53;13.57;;;;;;;13.81;83.40;99329.91;5017148;28;20201;-51
2022/05/06 08:22:11;;;;;;;22.07;13.33;;;;;;;13.78;81.73;99327.63;5014729;28;20249;-49
2022/05/06 08:24:38;;;;;;;19.03;13.47;;;;;;;13.70;81.70;99329.22;5013068;28;20222;-51
2022/05/06 08:27:05;;;;;;;22.27;12.80;;;;;;;13.64;81.80;99326.38;5013886;28;20231;-51
2022/05/06 08:29:52;;;;;;;21.97;12.27;;;;;;;13.63;81.01;99325.56;5008990;28;20698;-50
2022/05/06 08:32:19;;;;;;;19.77;13.77;;;;;;;13.49;83.01;99320.88;5012852;28;20704;-49
2022/05/06 08:34:47;;;;;;;22.97;12.97;;;;;;;13.68;81.23;99327.72;5014902;28;20223;-51
2022/05/06 08:37:15;;;;;;;19.70;13.37;;;;;;;13.81;81.82;99330.75;5013784;28;20402;-51
2022/05/06 08:39:42;;;;;;;18.37;12.63;;;;;;;13.87;81.65;99332.75;4993159;28;20662;-50
2022/05/06 08:42:13;;;;;;;19.80;12.90;;;;;;;13.99;79.61;99332.50;5012456;28;20244;-52
2022/05/06 08:53:03;;;;;;;16.73;11.53;;;;;;;14.41;79.35;99344.84;5013466;28;20200;-49
2022/05/06 08:55:30;;;;;;;20.67;12.83;;;;;;;14.57;75.36;99346.72;5013024;28;20239;-54
2022/05/06 08:57:58;;;;;;;16.67;10.97;;;;;;;14.69;73.94;99349.91;5013145;28;20286;-52
2022/05/06 09:00:28;;;;;;;15.30;10.50;;;;;;;14.67;72.49;99348.38;5013262;28;20280;-52
2022/05/06 09:02:56;;;;;;;19.77;10.97;;;;;;;14.76;72.53;99350.09;5012586;28;20190;-51
2022/05/06 09:05:23;;;;;;;17.10;10.03;;;;;;;14.62;70.04;99348.84;4995019;28;20215;-51
2022/05/06 09:07:57;;;;;;;13.77;9.47;;;;;;;14.82;70.26;99356.50;5013015;28;20189;-51
2022/05/06 09:10:25;;;;;;;14.63;10.73;;;;;;;15.05;69.07;99347.03;4995544;28;20239;-52
2022/05/06 09:12:55;;;;;;;18.50;9.63;;;;;;;15.12;67.59;99344.56;5013210;28;20261;-50
2022/05/06 09:18:10;;;;;;;13.43;8.93;;;;;;;15.02;67.20;99352.59;4995048;28;20207;-53
2022/05/06 09:20:38;;;;;;;15.37;8.97;;;;;;;15.08;68.26;99352.94;5012494;28;20298;-50
2022/05/06 09:23:24;;;;;;;17.37;9.50;;;;;;;15.32;66.76;99347.72;4994444;28;20288;-51
2022/05/06 09:25:53;;;;;;;16.87;9.43;;;;;;;15.18;68.21;99353.63;5012202;28;20709;-51
2022/05/06 09:28:38;;;;;;;18.17;9.10;;;;;;;15.27;67.19;99351.81;5012783;28;20286;-50
2022/05/06 09:31:07;;;;;;;19.00;8.83;;;;;;;15.73;67.89;99359.19;5012281;28;20190;-52
2022/05/06 09:33:37;;;;;;;15.73;9.23;;;;;;;15.90;65.56;99355.59;5012425;28;20547;-50
2022/05/06 09:36:23;;;;;;;13.53;8.17;;;;;;;15.52;67.97;99357.06;5012093;28;20676;-50
2022/05/06 09:39:04;;;;;;;15.00;8.70;;;;;;;15.03;67.25;99358.66;5012235;28;20742;-50
2022/05/06 09:41:31;;;;;;;16.13;9.23;;;;;;;15.74;67.94;99363.47;4994517;28;20219;-51
2022/05/06 09:44:00;;;;;;;12.37;7.87;;;;;;;16.14;65.20;99351.25;5012152;28;20339;-50
2022/05/06 09:46:27;;;;;;;14.37;8.93;;;;;;;16.22;65.52;99356.50;5012105;28;20194;-51
2022/05/06 09:48:56;;;;;;;15.03;8.90;;;;;;;16.06;63.92;99351.28;5012214;28;20609;-50
2022/05/06 09:51:28;;;;;;;12.90;8.37;;;;;;;16.18;64.76;99349.09;5012607;28;20266;-50
2022/05/06 09:53:56;;;;;;;11.80;7.77;;;;;;;16.15;65.15;99354.69;5011526;28;20255;-50
2022/05/06 09:56:24;;;;;;;13.97;7.90;;;;;;;16.43;62.59;99346.38;5011641;28;20217;-51
2022/05/06 09:58:52;;;;;;;13.25;7.70;;;;;;;16.11;63.38;99348.13;5011513;28;20438;-50
2022/05/06 10:01:20;;;;;;;17.83;8.00;;;;;;;15.94;63.42;99351.63;4994307;28;20570;-50
2022/05/06 10:03:47;;;;;;;12.57;7.67;;;;;;;16.42;59.91;99355.28;5011619;28;20187;-50
2022/05/06 10:06:16;;;;;;;11.67;6.63;;;;;;;16.36;59.31;99362.88;5011805;28;20555;-50
2022/05/06 10:08:49;;;;;;;8.13;6.27;;;;;;;16.28;60.02;99365.53;5011661;28;20187;-50
2022/05/06 10:11:22;;;;;;;15.40;6.53;;;;;;;16.14;60.94;99364.41;5013167;28;20192;-52
2022/05/06 10:13:51;;;;;;;9.43;6.50;;;;;;;16.22;59.21;99364.41;5015361;28;20198;-50
2022/05/06 10:16:19;;;;;;;12.67;6.83;;;;;;;15.91;59.18;99356.38;5015641;28;20189;-50
2022/05/06 10:18:46;;;;;;;12.10;6.13;;;;;;;16.48;58.42;99360.66;5015490;28;20194;-50
2022/05/06 10:21:16;;;;;;;15.90;6.63;;;;;;;16.59;58.89;99356.00;4997806;28;20211;-50
2022/05/06 10:23:48;;;;;;;9.20;6.03;;;;;;;16.40;57.28;99360.72;5015282;28;20193;-50
2022/05/06 10:26:46;;;;;;;10.87;5.80;;;;;;;16.37;57.92;99356.59;5015482;28;20330;-50
2022/05/06 10:32:56;;;;;;;10.57;4.93;;;;;;;16.68;55.28;99355.81;5015241;28;20284;-49
2022/05/06 10:35:41;;;;;;;9.43;4.10;;;;;;;16.65;54.18;99353.53;4997337;28;20270;-49
2022/05/06 10:38:24;;;;;;;8.57;4.63;;;;;;;16.58;53.14;99368.38;5015154;28;20227;-49
2022/05/06 10:40:57;;;;;;;8.40;4.47;;;;;;;16.25;53.97;99363.22;5014888;28;20237;-49
2022/05/06 10:43:50;;;;;;;9.93;4.77;;;;;;;16.39;54.20;99364.34;4997239;28;20209;-48
2022/05/06 10:46:35;;;;;;;7.37;4.40;;;;;;;16.34;53.93;99366.66;4997487;28;20238;-48
2022/05/06 10:49:48;;;;;;;7.43;4.67;;;;;;;16.03;55.27;99360.31;4997263;28;20199;-49
2022/05/06 10:52:47;;;;;;;12.87;5.63;;;;;;;16.30;53.59;99358.28;5015220;28;20190;-49
2022/05/06 10:55:20;;;;;;;6.63;4.73;;;;;;;16.09;52.84;99354.38;5014488;28;20272;-49
2022/05/06 10:57:59;;;;;;;8.17;3.93;;;;;;;16.61;55.60;99352.22;5014837;28;20659;-49
2022/05/06 11:00:28;;;;;;;7.10;4.23;;;;;;;16.89;54.25;99356.19;5014918;28;20198;-49
2022/05/06 11:02:57;;;;;;;8.83;4.03;;;;;;;16.81;51.79;99344.69;5014526;28;20568;-50
2022/05/06 11:05:26;;;;;;;6.33;3.93;;;;;;;16.71;51.70;99353.81;5007392;28;20218;-48
2022/05/06 11:07:58;;;;;;;5.63;3.50;;;;;;;16.80;52.22;99348.31;5012934;28;20203;-49
2022/05/06 11:10:29;;;;;;;9.30;4.30;;;;;;;16.65;51.62;99352.69;5014872;28;20210;-49
2022/05/06 11:12:58;;;;;;;11.97;4.00;;;;;;;17.04;51.89;99345.72;5014812;28;20203;-49
2022/05/06 11:15:30;;;;;;;9.43;4.00;;;;;;;17.25;49.02;99348.56;5013867;28;20208;-49
2022/05/06 11:17:59;;;;;;;11.83;4.40;;;;;;;17.43;48.86;99344.78;4996729;28;20200;-49
2022/05/06 11:20:27;;;;;;;9.37;4.17;;;;;;;17.24;51.32;99341.63;5014763;28;20243;-49
2022/05/06 11:22:57;;;;;;;6.63;3.60;;;;;;;17.33;51.31;99347.69;5006053;28;20216;-49
2022/05/06 11:25:25;;;;;;;8.27;3.50;;;;;;;17.38;50.94;99353.25;5024605;28;20217;-49
2022/05/06 11:27:56;;;;;;;7.00;3.40;;;;;;;17.64;47.57;99351.22;5023373;28;20189;-50
2022/05/06 11:30:25;;;;;;;8.00;3.50;;;;;;;17.67;46.16;99345.59;5022650;28;20270;-49
2022/05/06 11:32:54;;;;;;;5.43;3.30;;;;;;;18.03;45.62;99352.81;5034099;28;20690;-49
2022/05/06 11:35:27;;;;;;;6.23;3.77;;;;;;;18.40;47.79;99347.66;5033793;28;20208;-49
2022/05/06 11:37:55;;;;;;;5.50;3.60;;;;;;;18.01;46.00;99352.22;5033820;28;20606;-49
2022/05/06 11:40:36;;;;;;;6.83;3.53;;;;;;;17.90;45.23;99340.22;5033676;28;20199;-49
2022/05/06 11:43:18;;;;;;;6.73;3.40;;;;;;;17.89;48.06;99338.59;5016031;28;20239;-49
2022/05/06 11:48:32;;;;;;;7.10;2.80;;;;;;;18.49;50.29;99333.31;5033461;28;20187;-49
2022/05/06 11:51:03;;;;;;;5.17;2.57;;;;;;;18.65;47.63;99337.56;5022920;28;20616;-49
2022/05/06 11:53:31;;;;;;;8.47;2.70;;;;;;;18.82;47.38;99335.50;5013304;28;20180;-49
2022/05/06 11:55:59;;;;;;;5.70;2.97;;;;;;;18.95;43.74;99332.19;4995527;28;20219;-50
2022/05/06 11:58:27;;;;;;;5.70;2.93;;;;;;;18.24;44.99;99330.16;5013705;28;20614;-50
2022/05/06 12:00:55;;;;;;;5.93;2.80;;;;;;;18.32;42.91;99305.47;5013892;28;20216;-50
2022/05/06 12:03:24;;;;;;;4.20;2.50;;;;;;;18.40;43.75;99315.94;5013504;28;20221;-49
2022/05/06 12:06:05;;;;;;;5.37;3.20;;;;;;;18.18;45.67;99317.66;5013146;28;20715;-50
2022/05/06 12:08:35;;;;;;;5.00;2.30;;;;;;;17.99;44.47;99315.41;5013379;28;20745;-50
2022/05/06 12:11:04;;;;;;;5.13;2.60;;;;;;;17.67;44.74;99330.53;5013502;28;20216;-49
2022/05/06 12:13:38;;;;;;;7.07;3.13;;;;;;;17.56;45.11;99320.41;5013223;28;20185;-49
2022/05/06 12:16:07;;;;;;;10.53;4.00;;;;;;;17.94;50.88;99320.38;5013440;28;20180;-50
2022/05/06 12:18:35;;;;;;;7.53;4.20;;;;;;;18.07;51.60;99311.84;5013289;28;20192;-50
2022/05/06 12:21:17;;;;;;;8.17;4.30;;;;;;;17.73;51.33;99310.53;5012638;28;20211;-50